CYVRCYYF

Guest
Details From CYVR - Vancouver Intl
To CYYF - Penticton
Flight Number -
Tags Decoded
Created
Modified
Stats Distance 142 nm / 263 km
Max Altitude 0 ft / 0 m
Waypoints 2
Social Downloads 6
Likes 0
Share VATSIM

Download

Looking for another format? Having issues loading an existing format? Contact us
Advertisement - Login to hide

Notes

Decoded

Route

CYVR CYYF

ID Type Via Altitude Latitude Longitude Leg Dist Tot Dist Heading (true) Name
O CYVR APT - 0 ft / 0 m 49.20509˚ -123.20131˚ - 0 nm - -
O CYYF APT - 0 ft / 0 m 49.46944˚ -119.60083˚ 141 nm 141 nm 82° / 85° -

Altitude Profile

Advertisement - Login to hide

CYVR

Details ICAO CYVR (YVR)
Name Vancouver Intl
Region Canada
Timezone America/Vancouver (UTC-8.0)
Stats Elevation 14 ft / 4 m (AMSL)
Location 49.192331° -123.187993°
Runways 4
Magnetic Variation 16.265° E

METAR

CYVR 170007Z 11009KT 12SM FEW008 SCT016 OVC053 06/05 A3026 RMK SF2CU2SC4 SLP248

Decode

TAF

TAF TAF CYVR 162338Z 1700/1806 08006KT P6SM FEW008 SCT015 OVC050 TEMPO 1700/1703 P6SM -SHRA SCT008 OVC015 FM170300 09008KT P6SM -RA SCT008 OVC025 TEMPO 1703/1710 4SM -RA BR OVC008 FM171000 08008KT 3SM -RA BR OVC008 FM172000 09010KT P6SM -RA OVC012 RMK NXT FCST BY 170300Z

Decode

Departure Runways

ID Width Length Bearing (true) Bearing (mag) Surface Threshold Offset Overrun Length
08 75 ft / 23 m 3,497 ft / 1,066 m 100.01° 83.74° Concrete 0 ft / 0 m 0 ft / 0 m
08L 200 ft / 61 m 9,910 ft / 3,021 m 99.80° 83.53° Concrete 0 ft / 0 m 0 ft / 0 m
08R 200 ft / 61 m 11,491 ft / 3,502 m 99.94° 83.67° Asphalt 0 ft / 0 m 0 ft / 0 m
12 200 ft / 61 m 7,291 ft / 2,222 m 141.91° 125.64° Asphalt 0 ft / 0 m 0 ft / 0 m
26 75 ft / 23 m 3,497 ft / 1,066 m 280.02° 263.75° Concrete 0 ft / 0 m 0 ft / 0 m
26L 200 ft / 61 m 11,491 ft / 3,502 m 279.97° 263.70° Asphalt 0 ft / 0 m 0 ft / 0 m
26R 200 ft / 61 m 9,910 ft / 3,021 m 279.83° 263.56° Concrete 0 ft / 0 m 0 ft / 0 m
30 200 ft / 61 m 7,291 ft / 2,222 m 321.93° 305.66° Asphalt 0 ft / 0 m 0 ft / 0 m

CYYF

Details ICAO CYYF (YYF)
Name PENTICTON
Region Canada
Timezone America/Vancouver (UTC-8.0)
Stats Elevation 1,129 ft / 344 m (AMSL)
Location 49.461250° -119.601385°
Runways 1
Magnetic Variation 15.573° E

METAR

CYYF 170000Z 18014G20KT 15SM FEW015 BKN060 OVC100 01/M02 A3021 RMK SC2SC5AC1 SLP249

Decode

TAF

TAF TAF CYYF 161839Z 1619/1707 17008KT P6SM FEW009 SCT060 BKN240 FM170300 17012KT P6SM SCT010 BKN060 OVC120 FM170600 17012KT 5SM -SN BKN012 OVC040 RMK NXT FCST BY 170100Z

Decode

Destination Runways

ID Width Length Bearing (true) Bearing (mag) Surface Threshold Offset Overrun Length
16 148 ft / 45 m 5,986 ft / 1,825 m 182.52° 166.95° Asphalt 0 ft / 0 m 0 ft / 0 m
34 148 ft / 45 m 5,986 ft / 1,825 m 2.52° 346.95° Asphalt 300 ft / 91 m 0 ft / 0 m

Approach Navaids

Runway Type Ident Frequency Range Bearing (true) Bearing (mag) Slope Elevation
16 Localiser XYF 110.30 MHz 18 nm / 33 km 180.00° 164.43° - 1,116 ft / 340 m (AMSL)

Popular Alternatives